This is the latest recevied weather packets stored in our database for station/object N5CNB-2. If no packets are shown the sender has not sent any weather packets the latest 1 day(s).
| Time | Temp. | Humidity | Pressure | Rain* | Wind** | Luminosity | Snow |
|---|---|---|---|---|---|---|---|
| 1778020254 | 27.78° C | 77% | 1006.4 hPa | 0 mm | 3.13 m/s, 217° | - | - |
| 1778019360 | 27.78° C | 77% | 1006.4 hPa | 0 mm | 2.68 m/s, 172° | - | - |
| 1778018457 | 28.33° C | 75% | 1006.5 hPa | 0 mm | 1.79 m/s, 160° | - | - |
| 1778017556 | 28.33° C | 74% | 1006.5 hPa | 0 mm | 2.68 m/s, 180° | - | - |
| 1778016648 | 28.89° C | 75% | 1006.8 hPa | 0 mm | 3.13 m/s, 225° | - | - |
| 1778015749 | 28.33° C | 75% | 1007.1 hPa | 0 mm | 3.13 m/s, 184° | - | - |
| 1778014851 | 28.89° C | 74% | 1007.3 hPa | 0 mm | 4.02 m/s, 163° | - | - |
| 1778013950 | 28.33° C | 77% | 1007.5 hPa | 0 mm | 3.13 m/s, 104° | - | - |
| 1778013068 | 28.33° C | 75% | 1007.5 hPa | 0 mm | 3.13 m/s, 162° | - | - |
| 1778012160 | 28.33° C | 75% | 1007.8 hPa | 0 mm | 2.24 m/s, 182° | - | - |
| 1778011255 | 28.89° C | 76% | 1008 hPa | 0 mm | 2.68 m/s, 171° | - | - |
| 1778010352 | 28.89° C | 76% | 1008.1 hPa | 0 mm | 1.79 m/s, 194° | - | - |
| 1778009452 | 28.33° C | 77% | 1008.3 hPa | 0 mm | 3.13 m/s, 183° | - | - |
| 1778008568 | 27.78° C | 77% | 1008.6 hPa | 0 mm | 2.68 m/s, 146° | - | - |
| 1778007655 | 27.78° C | 78% | 1008.8 hPa | 0 mm | 1.34 m/s, 177° | - | - |
| 1778006756 | 28.33° C | 76% | 1008.9 hPa | 0 mm | 0.89 m/s, 181° | - | - |
| 1778005857 | 27.22° C | 80% | 1008.9 hPa | 0 mm | 0.89 m/s, 159° | - | - |
| 1778004954 | 27.22° C | 80% | 1008.9 hPa | 0 mm | 1.79 m/s, 135° | - | - |
| 1778004063 | 27.22° C | 80% | 1008.8 hPa | 0 mm | 1.34 m/s, 194° | - | - |
| 1778003160 | 27.22° C | 80% | 1009.1 hPa | 0 mm | 2.24 m/s, 147° | - | - |
| 1778002259 | 26.67° C | 79% | 1009.3 hPa | 0 mm | 2.68 m/s, 137° | - | - |
| 1778001362 | 26.67° C | 81% | 1009.3 hPa | 0 mm | 2.24 m/s, 196° | - | - |
| 1778000471 | 26.67° C | 81% | 1009.5 hPa | 0 mm | 1.79 m/s, 200° | - | - |
| 1777999555 | 26.11° C | 84% | 1009.4 hPa | 0 mm | 1.79 m/s, 219° | - | - |
| 1777998657 | 25.56° C | 86% | 1009.5 hPa | 0 mm | 1.34 m/s, 193° | - | - |
* Rain latest hour (hover to see other rain measurements)
** Current wind speed in m/s (hover to see current wind gust speed)